sensor_id;sensor_type;location;lat;lon;timestamp;temperature;humidity
66522;SHT31;53349;53.538;8.584;2022-10-31T00:01:25;15.23;79.89
66522;SHT31;53349;53.538;8.584;2022-10-31T00:03:51;15.25;79.87
66522;SHT31;53349;53.538;8.584;2022-10-31T00:06:16;15.25;79.70
66522;SHT31;53349;53.538;8.584;2022-10-31T00:08:46;15.20;79.69
66522;SHT31;53349;53.538;8.584;2022-10-31T00:11:11;15.19;79.69
66522;SHT31;53349;53.538;8.584;2022-10-31T00:13:37;15.18;79.64
66522;SHT31;53349;53.538;8.584;2022-10-31T00:16:02;15.16;79.49
66522;SHT31;53349;53.538;8.584;2022-10-31T00:18:28;15.09;79.59
66522;SHT31;53349;53.538;8.584;2022-10-31T00:21:01;15.10;79.69
66522;SHT31;53349;53.538;8.584;2022-10-31T00:23:28;15.12;79.71
66522;SHT31;53349;53.538;8.584;2022-10-31T00:25:53;15.10;79.76
66522;SHT31;53349;53.538;8.584;2022-10-31T00:28:18;15.08;79.77
66522;SHT31;53349;53.538;8.584;2022-10-31T00:30:44;15.06;79.71
66522;SHT31;53349;53.538;8.584;2022-10-31T00:33:09;15.08;79.57
66522;SHT31;53349;53.538;8.584;2022-10-31T00:35:34;15.06;79.60
66522;SHT31;53349;53.538;8.584;2022-10-31T00:38:00;15.09;79.58
66522;SHT31;53349;53.538;8.584;2022-10-31T00:40:25;15.03;79.70
66522;SHT31;53349;53.538;8.584;2022-10-31T00:42:51;15.00;79.92
66522;SHT31;53349;53.538;8.584;2022-10-31T00:45:16;14.99;79.96
66522;SHT31;53349;53.538;8.584;2022-10-31T00:47:43;14.99;80.03
66522;SHT31;53349;53.538;8.584;2022-10-31T00:50:08;14.96;80.25
66522;SHT31;53349;53.538;8.584;2022-10-31T00:52:34;14.95;80.18
66522;SHT31;53349;53.538;8.584;2022-10-31T00:55:00;14.95;80.25
66522;SHT31;53349;53.538;8.584;2022-10-31T00:57:25;14.93;80.25
66522;SHT31;53349;53.538;8.584;2022-10-31T00:59:50;14.91;80.37
66522;SHT31;53349;53.538;8.584;2022-10-31T01:02:16;14.89;80.47
66522;SHT31;53349;53.538;8.584;2022-10-31T01:04:41;14.89;80.55
66522;SHT31;53349;53.538;8.584;2022-10-31T01:07:07;14.91;80.56
66522;SHT31;53349;53.538;8.584;2022-10-31T01:09:32;14.88;80.49
66522;SHT31;53349;53.538;8.584;2022-10-31T01:11:58;14.88;80.49
66522;SHT31;53349;53.538;8.584;2022-10-31T01:14:23;14.84;80.55
66522;SHT31;53349;53.538;8.584;2022-10-31T01:16:49;14.85;80.70
66522;SHT31;53349;53.538;8.584;2022-10-31T01:19:17;14.84;80.79
66522;SHT31;53349;53.538;8.584;2022-10-31T01:21:42;14.84;80.85
66522;SHT31;53349;53.538;8.584;2022-10-31T01:24:08;14.82;81.03
66522;SHT31;53349;53.538;8.584;2022-10-31T01:26:33;14.88;81.16
66522;SHT31;53349;53.538;8.584;2022-10-31T01:29:01;14.82;81.39
66522;SHT31;53349;53.538;8.584;2022-10-31T01:31:28;14.82;81.43
66522;SHT31;53349;53.538;8.584;2022-10-31T01:33:54;14.81;81.50
66522;SHT31;53349;53.538;8.584;2022-10-31T01:36:24;14.79;81.45
66522;SHT31;53349;53.538;8.584;2022-10-31T01:38:52;14.78;81.46
66522;SHT31;53349;53.538;8.584;2022-10-31T01:41:23;14.77;81.45
66522;SHT31;53349;53.538;8.584;2022-10-31T01:46:33;14.74;81.36
66522;SHT31;53349;53.538;8.584;2022-10-31T01:49:02;14.75;81.39
66522;SHT31;53349;53.538;8.584;2022-10-31T01:51:33;14.71;81.32
66522;SHT31;53349;53.538;8.584;2022-10-31T01:54:03;14.69;81.37
66522;SHT31;53349;53.538;8.584;2022-10-31T01:56:31;14.65;81.41
66522;SHT31;53349;53.538;8.584;2022-10-31T01:58:59;14.63;81.43
66522;SHT31;53349;53.538;8.584;2022-10-31T02:01:28;14.65;81.35
66522;SHT31;53349;53.538;8.584;2022-10-31T02:03:54;14.64;81.36
66522;SHT31;53349;53.538;8.584;2022-10-31T02:09:02;14.61;81.44
66522;SHT31;53349;53.538;8.584;2022-10-31T02:11:29;14.60;81.36
66522;SHT31;53349;53.538;8.584;2022-10-31T02:13:54;14.60;81.26
66522;SHT31;53349;53.538;8.584;2022-10-31T02:16:20;14.54;81.16
66522;SHT31;53349;53.538;8.584;2022-10-31T02:18:45;14.51;81.38
66522;SHT31;53349;53.538;8.584;2022-10-31T02:21:37;14.54;81.47
66522;SHT31;53349;53.538;8.584;2022-10-31T02:24:23;14.51;81.60
66522;SHT31;53349;53.538;8.584;2022-10-31T02:35:14;14.57;81.54
66522;SHT31;53349;53.538;8.584;2022-10-31T02:37:55;14.55;81.56
66522;SHT31;53349;53.538;8.584;2022-10-31T02:40:30;14.52;81.59
66522;SHT31;53349;53.538;8.584;2022-10-31T02:43:05;14.51;81.65
66522;SHT31;53349;53.538;8.584;2022-10-31T02:45:47;14.52;81.64
66522;SHT31;53349;53.538;8.584;2022-10-31T02:48:26;14.52;81.65
66522;SHT31;53349;53.538;8.584;2022-10-31T02:50:56;14.54;81.62
66522;SHT31;53349;53.538;8.584;2022-10-31T02:53:24;14.54;81.64
66522;SHT31;53349;53.538;8.584;2022-10-31T02:56:00;14.51;81.61
66522;SHT31;53349;53.538;8.584;2022-10-31T02:58:30;14.52;81.59
66522;SHT31;53349;53.538;8.584;2022-10-31T03:09:42;14.44;81.38
66522;SHT31;53349;53.538;8.584;2022-10-31T03:12:15;14.44;81.33
66522;SHT31;53349;53.538;8.584;2022-10-31T03:14:53;14.41;81.38
66522;SHT31;53349;53.538;8.584;2022-10-31T03:20:00;14.37;81.32
66522;SHT31;53349;53.538;8.584;2022-10-31T03:22:29;14.36;81.28
66522;SHT31;53349;53.538;8.584;2022-10-31T03:24:56;14.38;81.32
66522;SHT31;53349;53.538;8.584;2022-10-31T03:27:25;14.34;81.29
66522;SHT31;53349;53.538;8.584;2022-10-31T03:29:54;14.34;81.31
66522;SHT31;53349;53.538;8.584;2022-10-31T03:32:30;14.30;81.29
66522;SHT31;53349;53.538;8.584;2022-10-31T03:34:59;14.30;81.37
66522;SHT31;53349;53.538;8.584;2022-10-31T03:37:29;14.27;81.31
66522;SHT31;53349;53.538;8.584;2022-10-31T03:39:58;14.26;81.23
66522;SHT31;53349;53.538;8.584;2022-10-31T03:42:25;14.21;81.20
66522;SHT31;53349;53.538;8.584;2022-10-31T03:44:59;14.20;81.19
66522;SHT31;53349;53.538;8.584;2022-10-31T03:47:28;14.17;81.18
66522;SHT31;53349;53.538;8.584;2022-10-31T03:49:54;14.16;81.26
66522;SHT31;53349;53.538;8.584;2022-10-31T03:52:27;14.13;81.31
66522;SHT31;53349;53.538;8.584;2022-10-31T03:54:59;14.14;81.32
66522;SHT31;53349;53.538;8.584;2022-10-31T04:00:19;14.10;81.15
66522;SHT31;53349;53.538;8.584;2022-10-31T04:03:07;14.07;81.09
66522;SHT31;53349;53.538;8.584;2022-10-31T04:05:35;14.06;81.01
66522;SHT31;53349;53.538;8.584;2022-10-31T04:08:04;13.99;81.11
66522;SHT31;53349;53.538;8.584;2022-10-31T04:10:33;13.97;81.25
66522;SHT31;53349;53.538;8.584;2022-10-31T04:13:04;13.93;81.28
66522;SHT31;53349;53.538;8.584;2022-10-31T04:15:31;13.95;81.40
66522;SHT31;53349;53.538;8.584;2022-10-31T04:17:58;13.95;81.24
66522;SHT31;53349;53.538;8.584;2022-10-31T04:20:35;13.93;81.22
66522;SHT31;53349;53.538;8.584;2022-10-31T04:23:02;13.87;81.18
66522;SHT31;53349;53.538;8.584;2022-10-31T04:25:28;13.86;81.32
66522;SHT31;53349;53.538;8.584;2022-10-31T04:27:54;13.80;81.32
66522;SHT31;53349;53.538;8.584;2022-10-31T04:30:19;13.75;81.37
66522;SHT31;53349;53.538;8.584;2022-10-31T04:32:46;13.70;81.37
66522;SHT31;53349;53.538;8.584;2022-10-31T04:35:11;13.67;81.35
66522;SHT31;53349;53.538;8.584;2022-10-31T04:37:37;13.63;81.27
66522;SHT31;53349;53.538;8.584;2022-10-31T04:40:03;13.59;81.28
66522;SHT31;53349;53.538;8.584;2022-10-31T04:42:29;13.51;81.46
66522;SHT31;53349;53.538;8.584;2022-10-31T04:44:55;13.44;81.80
66522;SHT31;53349;53.538;8.584;2022-10-31T04:47:20;13.36;82.08
66522;SHT31;53349;53.538;8.584;2022-10-31T04:49:46;13.31;82.30
66522;SHT31;53349;53.538;8.584;2022-10-31T04:52:11;13.28;82.49
66522;SHT31;53349;53.538;8.584;2022-10-31T04:54:36;13.25;82.55
66522;SHT31;53349;53.538;8.584;2022-10-31T04:57:02;13.28;82.55
66522;SHT31;53349;53.538;8.584;2022-10-31T04:59:27;13.24;82.61
66522;SHT31;53349;53.538;8.584;2022-10-31T05:01:52;13.22;82.52
66522;SHT31;53349;53.538;8.584;2022-10-31T05:04:18;13.17;82.61
66522;SHT31;53349;53.538;8.584;2022-10-31T05:06:43;13.08;82.82
66522;SHT31;53349;53.538;8.584;2022-10-31T05:09:08;13.08;83.21
66522;SHT31;53349;53.538;8.584;2022-10-31T05:11:34;13.04;83.29
66522;SHT31;53349;53.538;8.584;2022-10-31T05:13:59;13.04;83.41
66522;SHT31;53349;53.538;8.584;2022-10-31T05:16:25;13.03;83.38
66522;SHT31;53349;53.538;8.584;2022-10-31T05:18:50;13.05;83.41
66522;SHT31;53349;53.538;8.584;2022-10-31T05:21:15;13.08;83.36
66522;SHT31;53349;53.538;8.584;2022-10-31T05:23:41;13.05;83.25
66522;SHT31;53349;53.538;8.584;2022-10-31T05:26:06;13.07;83.30
66522;SHT31;53349;53.538;8.584;2022-10-31T05:28:31;13.08;83.26
66522;SHT31;53349;53.538;8.584;2022-10-31T05:30:57;13.08;83.29
66522;SHT31;53349;53.538;8.584;2022-10-31T05:33:22;13.03;83.39
66522;SHT31;53349;53.538;8.584;2022-10-31T05:35:47;13.00;83.47
66522;SHT31;53349;53.538;8.584;2022-10-31T05:38:13;12.94;83.59
66522;SHT31;53349;53.538;8.584;2022-10-31T05:40:38;12.91;83.87
66522;SHT31;53349;53.538;8.584;2022-10-31T05:43:03;12.96;83.82
66522;SHT31;53349;53.538;8.584;2022-10-31T05:45:29;12.97;83.89
66522;SHT31;53349;53.538;8.584;2022-10-31T05:47:56;12.97;83.78
66522;SHT31;53349;53.538;8.584;2022-10-31T05:50:22;12.97;83.57
66522;SHT31;53349;53.538;8.584;2022-10-31T05:53:01;12.98;83.50
66522;SHT31;53349;53.538;8.584;2022-10-31T05:55:27;12.96;83.38
66522;SHT31;53349;53.538;8.584;2022-10-31T05:57:54;13.03;83.30
66522;SHT31;53349;53.538;8.584;2022-10-31T06:00:20;12.97;83.21
66522;SHT31;53349;53.538;8.584;2022-10-31T06:02:45;12.97;83.07
66522;SHT31;53349;53.538;8.584;2022-10-31T06:05:11;12.91;82.99
66522;SHT31;53349;53.538;8.584;2022-10-31T06:07:37;12.93;83.25
66522;SHT31;53349;53.538;8.584;2022-10-31T06:10:04;12.90;83.24
66522;SHT31;53349;53.538;8.584;2022-10-31T06:12:30;12.68;82.91
66522;SHT31;53349;53.538;8.584;2022-10-31T06:14:56;12.73;82.91
66522;SHT31;53349;53.538;8.584;2022-10-31T06:17:21;12.74;82.67
66522;SHT31;53349;53.538;8.584;2022-10-31T06:19:47;12.70;82.73
66522;SHT31;53349;53.538;8.584;2022-10-31T06:22:12;12.72;82.52
66522;SHT31;53349;53.538;8.584;2022-10-31T06:24:38;12.74;82.50
66522;SHT31;53349;53.538;8.584;2022-10-31T06:27:03;12.74;82.28
66522;SHT31;53349;53.538;8.584;2022-10-31T06:29:29;12.66;82.12
66522;SHT31;53349;53.538;8.584;2022-10-31T06:31:54;12.60;82.36
66522;SHT31;53349;53.538;8.584;2022-10-31T06:34:19;12.50;82.44
66522;SHT31;53349;53.538;8.584;2022-10-31T06:36:48;12.43;82.80
66522;SHT31;53349;53.538;8.584;2022-10-31T06:39:14;12.37;83.13
66522;SHT31;53349;53.538;8.584;2022-10-31T06:41:41;12.32;83.31
66522;SHT31;53349;53.538;8.584;2022-10-31T06:44:07;12.26;83.13
66522;SHT31;53349;53.538;8.584;2022-10-31T06:46:35;12.29;82.98
66522;SHT31;53349;53.538;8.584;2022-10-31T06:49:01;12.26;82.72
66522;SHT31;53349;53.538;8.584;2022-10-31T06:51:26;12.19;82.30
66522;SHT31;53349;53.538;8.584;2022-10-31T06:53:52;12.21;82.23
66522;SHT31;53349;53.538;8.584;2022-10-31T06:56:17;12.16;82.33
66522;SHT31;53349;53.538;8.584;2022-10-31T06:58:42;12.16;82.56
66522;SHT31;53349;53.538;8.584;2022-10-31T07:01:08;12.11;82.95
66522;SHT31;53349;53.538;8.584;2022-10-31T07:03:33;12.16;83.10
66522;SHT31;53349;53.538;8.584;2022-10-31T07:05:58;12.05;83.08
66522;SHT31;53349;53.538;8.584;2022-10-31T07:08:24;11.99;83.39
66522;SHT31;53349;53.538;8.584;2022-10-31T07:10:54;12.02;83.45
66522;SHT31;53349;53.538;8.584;2022-10-31T07:13:21;12.05;83.36
66522;SHT31;53349;53.538;8.584;2022-10-31T07:15:51;12.04;83.48
66522;SHT31;53349;53.538;8.584;2022-10-31T07:18:17;12.05;83.53
66522;SHT31;53349;53.538;8.584;2022-10-31T07:20:42;11.99;83.36
66522;SHT31;53349;53.538;8.584;2022-10-31T07:23:09;12.01;83.62
66522;SHT31;53349;53.538;8.584;2022-10-31T07:25:35;12.01;83.40
66522;SHT31;53349;53.538;8.584;2022-10-31T07:28:00;12.06;83.59
66522;SHT31;53349;53.538;8.584;2022-10-31T07:30:26;11.99;83.72
66522;SHT31;53349;53.538;8.584;2022-10-31T07:32:51;12.04;83.79
66522;SHT31;53349;53.538;8.584;2022-10-31T07:35:21;12.05;83.67
66522;SHT31;53349;53.538;8.584;2022-10-31T07:37:48;12.08;83.80
66522;SHT31;53349;53.538;8.584;2022-10-31T07:40:14;12.08;83.74
66522;SHT31;53349;53.538;8.584;2022-10-31T07:42:41;12.11;83.68
66522;SHT31;53349;53.538;8.584;2022-10-31T07:45:09;12.14;83.76
66522;SHT31;53349;53.538;8.584;2022-10-31T07:47:42;12.12;83.81
66522;SHT31;53349;53.538;8.584;2022-10-31T07:50:09;12.19;83.76
66522;SHT31;53349;53.538;8.584;2022-10-31T07:52:35;12.24;83.76
66522;SHT31;53349;53.538;8.584;2022-10-31T07:55:01;12.29;83.58
66522;SHT31;53349;53.538;8.584;2022-10-31T07:57:27;12.26;83.53
66522;SHT31;53349;53.538;8.584;2022-10-31T07:59:52;12.33;83.58
66522;SHT31;53349;53.538;8.584;2022-10-31T08:02:18;12.29;83.50
66522;SHT31;53349;53.538;8.584;2022-10-31T08:04:43;12.35;83.54
66522;SHT31;53349;53.538;8.584;2022-10-31T08:07:10;12.28;83.58
66522;SHT31;53349;53.538;8.584;2022-10-31T08:09:35;12.35;83.66
66522;SHT31;53349;53.538;8.584;2022-10-31T08:12:00;12.32;83.64
66522;SHT31;53349;53.538;8.584;2022-10-31T08:14:27;12.36;83.69
66522;SHT31;53349;53.538;8.584;2022-10-31T08:16:53;12.39;83.87
66522;SHT31;53349;53.538;8.584;2022-10-31T08:19:20;12.37;83.87
66522;SHT31;53349;53.538;8.584;2022-10-31T08:21:45;12.42;83.98
66522;SHT31;53349;53.538;8.584;2022-10-31T08:24:11;12.37;84.08
66522;SHT31;53349;53.538;8.584;2022-10-31T08:26:36;12.40;84.16
66522;SHT31;53349;53.538;8.584;2022-10-31T08:29:02;12.45;84.13
66522;SHT31;53349;53.538;8.584;2022-10-31T08:31:28;12.49;83.97
66522;SHT31;53349;53.538;8.584;2022-10-31T08:33:53;12.56;84.15
66522;SHT31;53349;53.538;8.584;2022-10-31T08:36:20;12.66;83.87
66522;SHT31;53349;53.538;8.584;2022-10-31T08:38:46;12.76;83.70
66522;SHT31;53349;53.538;8.584;2022-10-31T08:41:12;12.76;83.35
66522;SHT31;53349;53.538;8.584;2022-10-31T08:43:37;12.81;83.27
66522;SHT31;53349;53.538;8.584;2022-10-31T08:46:02;12.79;82.98
66522;SHT31;53349;53.538;8.584;2022-10-31T08:48:28;12.76;82.82
66522;SHT31;53349;53.538;8.584;2022-10-31T08:50:56;12.67;83.02
66522;SHT31;53349;53.538;8.584;2022-10-31T08:53:23;12.70;82.99
66522;SHT31;53349;53.538;8.584;2022-10-31T08:55:49;12.66;83.07
66522;SHT31;53349;53.538;8.584;2022-10-31T08:58:18;12.60;83.38
66522;SHT31;53349;53.538;8.584;2022-10-31T09:00:46;12.61;83.45
66522;SHT31;53349;53.538;8.584;2022-10-31T09:03:13;12.61;83.65
66522;SHT31;53349;53.538;8.584;2022-10-31T09:05:39;12.63;83.84
66522;SHT31;53349;53.538;8.584;2022-10-31T09:08:06;12.72;83.67
66522;SHT31;53349;53.538;8.584;2022-10-31T09:10:33;12.79;83.40
66522;SHT31;53349;53.538;8.584;2022-10-31T09:13:04;12.88;83.41
66522;SHT31;53349;53.538;8.584;2022-10-31T09:15:32;12.93;83.29
66522;SHT31;53349;53.538;8.584;2022-10-31T09:17:57;12.98;83.27
66522;SHT31;53349;53.538;8.584;2022-10-31T09:20:23;13.03;83.57
66522;SHT31;53349;53.538;8.584;2022-10-31T09:23:04;13.12;83.66
66522;SHT31;53349;53.538;8.584;2022-10-31T09:25:32;13.14;83.29
66522;SHT31;53349;53.538;8.584;2022-10-31T09:27:59;13.22;83.37
66522;SHT31;53349;53.538;8.584;2022-10-31T09:30:26;13.32;83.29
66522;SHT31;53349;53.538;8.584;2022-10-31T09:32:59;13.45;83.27
66522;SHT31;53349;53.538;8.584;2022-10-31T09:35:25;13.46;82.93
66522;SHT31;53349;53.538;8.584;2022-10-31T09:37:59;13.48;82.79
66522;SHT31;53349;53.538;8.584;2022-10-31T09:40:36;13.58;82.57
66522;SHT31;53349;53.538;8.584;2022-10-31T09:45:39;13.59;82.32
66522;SHT31;53349;53.538;8.584;2022-10-31T09:48:27;13.66;82.17
66522;SHT31;53349;53.538;8.584;2022-10-31T09:51:03;13.73;82.05
66522;SHT31;53349;53.538;8.584;2022-10-31T09:56:12;13.80;81.64
66522;SHT31;53349;53.538;8.584;2022-10-31T09:58:43;13.87;81.51
66522;SHT31;53349;53.538;8.584;2022-10-31T10:01:33;13.97;81.36
66522;SHT31;53349;53.538;8.584;2022-10-31T10:04:09;14.02;81.72
66522;SHT31;53349;53.538;8.584;2022-10-31T10:06:41;14.03;82.00
66522;SHT31;53349;53.538;8.584;2022-10-31T10:09:09;14.03;81.80
66522;SHT31;53349;53.538;8.584;2022-10-31T10:17:25;14.27;81.06
66522;SHT31;53349;53.538;8.584;2022-10-31T10:20:10;14.37;80.93
66522;SHT31;53349;53.538;8.584;2022-10-31T10:25:33;14.37;80.21
66522;SHT31;53349;53.538;8.584;2022-10-31T10:28:38;14.31;80.10
66522;SHT31;53349;53.538;8.584;2022-10-31T10:31:09;14.37;80.07
66522;SHT31;53349;53.538;8.584;2022-10-31T10:33:39;14.45;80.08
66522;SHT31;53349;53.538;8.584;2022-10-31T10:36:11;14.61;79.79
66522;SHT31;53349;53.538;8.584;2022-10-31T10:38:42;14.74;79.56
66522;SHT31;53349;53.538;8.584;2022-10-31T10:41:16;14.82;79.08
66522;SHT31;53349;53.538;8.584;2022-10-31T10:43:42;14.84;78.66
66522;SHT31;53349;53.538;8.584;2022-10-31T10:59:58;14.95;78.14
66522;SHT31;53349;53.538;8.584;2022-10-31T11:02:27;15.05;78.07
66522;SHT31;53349;53.538;8.584;2022-10-31T11:04:57;15.06;77.81
66522;SHT31;53349;53.538;8.584;2022-10-31T11:07:23;15.02;77.68
66522;SHT31;53349;53.538;8.584;2022-10-31T11:09:48;14.98;77.78
66522;SHT31;53349;53.538;8.584;2022-10-31T11:12:32;14.93;78.13
66522;SHT31;53349;53.538;8.584;2022-10-31T11:15:00;14.99;78.17
66522;SHT31;53349;53.538;8.584;2022-10-31T11:17:38;14.99;78.00
66522;SHT31;53349;53.538;8.584;2022-10-31T11:22:39;15.03;78.27
66522;SHT31;53349;53.538;8.584;2022-10-31T11:25:34;15.05;78.23
66522;SHT31;53349;53.538;8.584;2022-10-31T11:28:05;15.10;77.93
66522;SHT31;53349;53.538;8.584;2022-10-31T11:30:42;15.13;77.79
66522;SHT31;53349;53.538;8.584;2022-10-31T11:36:16;14.96;78.23
66522;SHT31;53349;53.538;8.584;2022-10-31T11:38:44;14.95;78.27
66522;SHT31;53349;53.538;8.584;2022-10-31T11:41:13;14.96;77.96
66522;SHT31;53349;53.538;8.584;2022-10-31T11:43:46;14.86;78.01
66522;SHT31;53349;53.538;8.584;2022-10-31T11:46:17;14.85;78.23
66522;SHT31;53349;53.538;8.584;2022-10-31T11:48:48;14.78;78.54
66522;SHT31;53349;53.538;8.584;2022-10-31T11:51:20;14.81;78.82
66522;SHT31;53349;53.538;8.584;2022-10-31T11:53:52;14.84;78.73
66522;SHT31;53349;53.538;8.584;2022-10-31T11:56:17;14.84;78.68
66522;SHT31;53349;53.538;8.584;2022-10-31T11:58:55;14.78;78.93
66522;SHT31;53349;53.538;8.584;2022-10-31T12:01:25;14.75;79.12
66522;SHT31;53349;53.538;8.584;2022-10-31T12:04:04;14.78;79.14
66522;SHT31;53349;53.538;8.584;2022-10-31T12:06:39;14.85;79.13
66522;SHT31;53349;53.538;8.584;2022-10-31T12:09:21;14.86;78.95
66522;SHT31;53349;53.538;8.584;2022-10-31T12:20:26;15.06;78.51
66522;SHT31;53349;53.538;8.584;2022-10-31T12:25:44;15.19;77.95
66522;SHT31;53349;53.538;8.584;2022-10-31T12:36:53;15.20;77.73
66522;SHT31;53349;53.538;8.584;2022-10-31T12:39:31;15.32;77.76
66522;SHT31;53349;53.538;8.584;2022-10-31T12:50:26;15.50;77.21
66522;SHT31;53349;53.538;8.584;2022-10-31T12:58:20;15.39;77.75
66522;SHT31;53349;53.538;8.584;2022-10-31T13:00:51;15.43;77.70
66522;SHT31;53349;53.538;8.584;2022-10-31T13:03:46;15.49;77.61
66522;SHT31;53349;53.538;8.584;2022-10-31T13:06:19;15.54;77.51
66522;SHT31;53349;53.538;8.584;2022-10-31T13:08:51;15.57;77.58
66522;SHT31;53349;53.538;8.584;2022-10-31T13:11:44;15.54;77.65
66522;SHT31;53349;53.538;8.584;2022-10-31T13:14:26;15.53;77.59
66522;SHT31;53349;53.538;8.584;2022-10-31T13:16:55;15.53;77.75
66522;SHT31;53349;53.538;8.584;2022-10-31T13:19:25;15.50;77.65
66522;SHT31;53349;53.538;8.584;2022-10-31T13:28:02;15.47;77.62
66522;SHT31;53349;53.538;8.584;2022-10-31T13:30:31;15.46;77.76
66522;SHT31;53349;53.538;8.584;2022-10-31T13:33:05;15.30;77.90
66522;SHT31;53349;53.538;8.584;2022-10-31T13:36:05;15.25;77.85
66522;SHT31;53349;53.538;8.584;2022-10-31T13:38:46;15.16;77.85
66522;SHT31;53349;53.538;8.584;2022-10-31T13:41:20;15.08;77.75
66522;SHT31;53349;53.538;8.584;2022-10-31T13:46:24;14.98;78.04
66522;SHT31;53349;53.538;8.584;2022-10-31T13:48:50;15.02;77.86
66522;SHT31;53349;53.538;8.584;2022-10-31T13:51:33;14.99;77.85
66522;SHT31;53349;53.538;8.584;2022-10-31T13:54:20;14.93;77.32
66522;SHT31;53349;53.538;8.584;2022-10-31T13:56:49;14.89;77.40
66522;SHT31;53349;53.538;8.584;2022-10-31T13:59:19;14.89;77.42
66522;SHT31;53349;53.538;8.584;2022-10-31T14:01:49;14.86;77.34
66522;SHT31;53349;53.538;8.584;2022-10-31T14:04:24;14.89;77.20
66522;SHT31;53349;53.538;8.584;2022-10-31T14:06:55;14.91;77.34
66522;SHT31;53349;53.538;8.584;2022-10-31T14:09:52;14.96;77.22
66522;SHT31;53349;53.538;8.584;2022-10-31T14:12:30;14.92;77.20
66522;SHT31;53349;53.538;8.584;2022-10-31T14:15:20;14.95;77.33
66522;SHT31;53349;53.538;8.584;2022-10-31T14:17:47;14.95;77.43
66522;SHT31;53349;53.538;8.584;2022-10-31T14:22:40;14.99;77.53
66522;SHT31;53349;53.538;8.584;2022-10-31T14:27:49;14.96;77.67
66522;SHT31;53349;53.538;8.584;2022-10-31T14:30:19;14.99;77.60
66522;SHT31;53349;53.538;8.584;2022-10-31T14:32:51;14.95;77.74
66522;SHT31;53349;53.538;8.584;2022-10-31T14:35:17;14.93;77.82
66522;SHT31;53349;53.538;8.584;2022-10-31T14:50:57;14.86;77.75
66522;SHT31;53349;53.538;8.584;2022-10-31T14:53:30;14.85;77.68
66522;SHT31;53349;53.538;8.584;2022-10-31T14:55:57;14.88;77.51
66522;SHT31;53349;53.538;8.584;2022-10-31T14:58:50;14.86;77.30
66522;SHT31;53349;53.538;8.584;2022-10-31T15:01:31;14.88;77.31
66522;SHT31;53349;53.538;8.584;2022-10-31T15:04:04;14.84;77.31
66522;SHT31;53349;53.538;8.584;2022-10-31T15:06:43;14.82;77.45
66522;SHT31;53349;53.538;8.584;2022-10-31T15:09:33;14.81;77.53
66522;SHT31;53349;53.538;8.584;2022-10-31T15:12:00;14.78;77.48
66522;SHT31;53349;53.538;8.584;2022-10-31T15:14:28;14.77;77.71
66522;SHT31;53349;53.538;8.584;2022-10-31T15:16:56;14.75;77.68
66522;SHT31;53349;53.538;8.584;2022-10-31T15:19:28;14.77;77.80
66522;SHT31;53349;53.538;8.584;2022-10-31T15:21:55;14.78;77.69
66522;SHT31;53349;53.538;8.584;2022-10-31T15:24:24;14.84;77.71
66522;SHT31;53349;53.538;8.584;2022-10-31T15:26:52;14.74;77.68
66522;SHT31;53349;53.538;8.584;2022-10-31T15:29:24;14.71;77.76
66522;SHT31;53349;53.538;8.584;2022-10-31T15:32:00;14.75;77.89
66522;SHT31;53349;53.538;8.584;2022-10-31T15:37:02;14.68;77.74
66522;SHT31;53349;53.538;8.584;2022-10-31T15:39:28;14.65;77.82
66522;SHT31;53349;53.538;8.584;2022-10-31T15:41:56;14.60;78.12
66522;SHT31;53349;53.538;8.584;2022-10-31T15:44:34;14.57;78.34
66522;SHT31;53349;53.538;8.584;2022-10-31T15:47:03;14.61;78.29
66522;SHT31;53349;53.538;8.584;2022-10-31T15:49:42;14.60;78.22
66522;SHT31;53349;53.538;8.584;2022-10-31T15:52:14;14.58;78.28
66522;SHT31;53349;53.538;8.584;2022-10-31T15:54:47;14.61;78.23
66522;SHT31;53349;53.538;8.584;2022-10-31T15:57:13;14.63;78.24
66522;SHT31;53349;53.538;8.584;2022-10-31T15:59:41;14.60;78.26
66522;SHT31;53349;53.538;8.584;2022-10-31T16:02:10;14.52;78.29
66522;SHT31;53349;53.538;8.584;2022-10-31T16:04:36;14.44;78.50
66522;SHT31;53349;53.538;8.584;2022-10-31T16:07:12;14.42;78.79
66522;SHT31;53349;53.538;8.584;2022-10-31T16:09:58;14.48;78.72
66522;SHT31;53349;53.538;8.584;2022-10-31T16:12:25;14.44;78.67
66522;SHT31;53349;53.538;8.584;2022-10-31T16:14:54;14.36;78.86
66522;SHT31;53349;53.538;8.584;2022-10-31T16:17:22;14.42;78.91
66522;SHT31;53349;53.538;8.584;2022-10-31T16:19:52;14.36;78.84
66522;SHT31;53349;53.538;8.584;2022-10-31T16:22:38;14.33;78.91
66522;SHT31;53349;53.538;8.584;2022-10-31T16:27:34;14.34;78.91
66522;SHT31;53349;53.538;8.584;2022-10-31T16:30:02;14.30;79.01
66522;SHT31;53349;53.538;8.584;2022-10-31T16:32:52;14.28;79.08
66522;SHT31;53349;53.538;8.584;2022-10-31T16:35:35;14.24;79.13
66522;SHT31;53349;53.538;8.584;2022-10-31T16:38:01;14.17;79.27
66522;SHT31;53349;53.538;8.584;2022-10-31T16:40:27;14.14;79.59
66522;SHT31;53349;53.538;8.584;2022-10-31T16:42:53;14.17;79.54
66522;SHT31;53349;53.538;8.584;2022-10-31T16:45:23;14.13;79.49
66522;SHT31;53349;53.538;8.584;2022-10-31T16:47:50;14.10;79.52
66522;SHT31;53349;53.538;8.584;2022-10-31T16:50:20;13.96;79.62
66522;SHT31;53349;53.538;8.584;2022-10-31T16:52:46;13.87;79.96
66522;SHT31;53349;53.538;8.584;2022-10-31T16:55:17;13.82;80.15
66522;SHT31;53349;53.538;8.584;2022-10-31T16:57:46;13.80;80.29
66522;SHT31;53349;53.538;8.584;2022-10-31T17:00:17;13.69;80.60
66522;SHT31;53349;53.538;8.584;2022-10-31T17:02:45;13.63;80.73
66522;SHT31;53349;53.538;8.584;2022-10-31T17:05:12;13.63;80.88
66522;SHT31;53349;53.538;8.584;2022-10-31T17:07:39;13.63;80.88
66522;SHT31;53349;53.538;8.584;2022-10-31T17:10:05;13.63;80.94
66522;SHT31;53349;53.538;8.584;2022-10-31T17:12:30;13.54;81.13
66522;SHT31;53349;53.538;8.584;2022-10-31T17:14:56;13.46;81.45
66522;SHT31;53349;53.538;8.584;2022-10-31T17:17:21;13.42;81.66
66522;SHT31;53349;53.538;8.584;2022-10-31T17:19:47;13.41;81.77
66522;SHT31;53349;53.538;8.584;2022-10-31T17:22:14;13.38;81.86
66522;SHT31;53349;53.538;8.584;2022-10-31T17:24:39;13.38;81.95
66522;SHT31;53349;53.538;8.584;2022-10-31T17:27:05;13.36;82.02
66522;SHT31;53349;53.538;8.584;2022-10-31T17:29:31;13.31;82.09
66522;SHT31;53349;53.538;8.584;2022-10-31T17:31:57;13.27;82.16
66522;SHT31;53349;53.538;8.584;2022-10-31T17:34:24;13.22;82.39
66522;SHT31;53349;53.538;8.584;2022-10-31T17:36:51;13.18;82.54
66522;SHT31;53349;53.538;8.584;2022-10-31T17:39:17;13.25;82.61
66522;SHT31;53349;53.538;8.584;2022-10-31T17:41:43;13.22;82.44
66522;SHT31;53349;53.538;8.584;2022-10-31T17:44:11;13.24;82.50
66522;SHT31;53349;53.538;8.584;2022-10-31T17:46:37;13.29;82.41
66522;SHT31;53349;53.538;8.584;2022-10-31T17:49:03;13.28;82.43
66522;SHT31;53349;53.538;8.584;2022-10-31T17:51:31;13.25;82.47